Time;durP1;ratioP1;P1;durP2;ratioP2;P2;SDS_P1;SDS_P2;PMS_P1;PMS_P2;Temp;Humidity;BMP_temperature;BMP_pressure;BME280_temperature;BME280_humidity;BME280_pressure;Samples;Min_cycle;Max_cycle;Signal;HPM_P1;HPM_P2
2023/08/29 00:02:04;;;;;;;5.53;3.30;;;;;;;21.34;48.46;94115.50;5115127;27;20473;-71
2023/08/29 00:04:29;;;;;;;4.10;2.90;;;;;;;21.38;47.98;94123.81;5133365;27;20084;-71
2023/08/29 00:06:55;;;;;;;4.57;3.10;;;;;;;21.31;48.71;94123.84;5111647;27;20035;-71
2023/08/29 00:09:21;;;;;;;4.40;2.70;;;;;;;21.15;48.20;94076.78;5094619;28;20031;-71
2023/08/29 00:11:46;;;;;;;3.33;2.72;;;;;;;21.23;48.32;94116.16;5077704;28;20042;-71
2023/08/29 00:14:12;;;;;;;4.25;3.20;;;;;;;20.93;48.59;94070.97;5124887;27;20019;-71
2023/08/29 00:16:37;;;;;;;5.15;2.90;;;;;;;21.14;49.05;94117.38;5114045;27;20032;-71
2023/08/29 00:19:03;;;;;;;5.20;2.95;;;;;;;21.04;48.86;94101.19;5112603;28;20051;-71
2023/08/29 00:21:28;;;;;;;5.07;3.10;;;;;;;21.10;48.88;94110.91;5094569;28;20093;-71
2023/08/29 00:23:54;;;;;;;5.25;3.00;;;;;;;21.09;48.43;94107.47;5111290;28;20081;-71
2023/08/29 00:26:19;;;;;;;4.93;3.40;;;;;;;21.03;49.12;94115.38;5094322;28;20074;-71
2023/08/29 00:28:44;;;;;;;4.03;2.80;;;;;;;20.72;49.61;94072.03;5112019;27;20504;-71
2023/08/29 00:31:10;;;;;;;3.92;2.72;;;;;;;20.92;49.82;94117.66;5100961;27;20436;-71
2023/08/29 00:33:35;;;;;;;5.22;3.45;;;;;;;20.86;50.12;94118.47;5114488;27;20039;-71
2023/08/29 00:36:01;;;;;;;4.93;3.00;;;;;;;20.72;49.49;94093.13;5088567;28;20493;-71
2023/08/29 00:38:26;;;;;;;4.80;3.08;;;;;;;20.38;50.36;94084.44;5110880;28;20031;-71
2023/08/29 00:40:52;;;;;;;6.93;3.20;;;;;;;20.60;49.30;94089.53;5094005;28;20034;-71
2023/08/29 00:43:17;;;;;;;6.13;3.30;;;;;;;20.80;48.79;94092.91;5113457;27;20030;-71
2023/08/29 00:45:42;;;;;;;4.68;3.10;;;;;;;21.00;48.95;94115.81;5131394;27;20450;-71
2023/08/29 00:48:08;;;;;;;6.20;3.22;;;;;;;20.92;49.11;94107.13;5114238;27;20088;-71
2023/08/29 00:50:33;;;;;;;7.10;3.00;;;;;;;20.92;49.12;94115.03;5114177;27;20023;-71
2023/08/29 00:53:03;;;;;;;4.05;2.80;;;;;;;20.93;49.46;94108.72;5114161;27;20034;-71
2023/08/29 00:55:28;;;;;;;4.30;3.40;;;;;;;20.92;48.61;94098.34;5114635;27;20035;-71
2023/08/29 00:57:57;;;;;;;3.72;2.67;;;;;;;21.04;49.11;94117.03;5129335;27;20409;-72
2023/08/29 01:00:26;;;;;;;5.43;3.25;;;;;;;20.97;49.72;94117.84;5114775;27;20034;-71
2023/08/29 01:02:51;;;;;;;5.43;3.25;;;;;;;20.89;49.59;94120.69;5114075;27;20059;-71
2023/08/29 01:05:17;;;;;;;4.95;2.92;;;;;;;20.75;49.22;94095.38;5131318;27;20050;-71
2023/08/29 01:07:42;;;;;;;3.85;2.85;;;;;;;20.89;49.61;94114.63;5109638;28;20031;-71
2023/08/29 01:10:08;;;;;;;4.03;3.20;;;;;;;20.89;49.50;94104.84;5093555;28;20031;-71
2023/08/29 01:12:48;;;;;;;5.07;3.42;;;;;;;20.71;49.76;94087.06;5078067;27;20048;-71
2023/08/29 01:15:22;;;;;;;4.40;3.25;;;;;;;20.68;50.31;94092.75;5114888;27;20056;-71
2023/08/29 01:18:02;;;;;;;5.13;3.13;;;;;;;20.56;50.52;94090.94;5113561;27;20110;-71
2023/08/29 01:20:29;;;;;;;4.88;3.47;;;;;;;20.34;50.87;94063.94;5097641;27;20031;-71
2023/08/29 01:23:21;;;;;;;4.35;2.90;;;;;;;20.69;50.53;94090.91;5111828;27;20042;-71
2023/08/29 01:26:12;;;;;;;5.60;2.90;;;;;;;20.51;50.98;94087.06;5110271;28;20038;-71
2023/08/29 01:28:37;;;;;;;4.18;3.10;;;;;;;20.19;51.10;94046.53;5124282;27;20080;-71
2023/08/29 01:31:03;;;;;;;4.97;3.38;;;;;;;20.21;51.30;94043.69;5129989;27;20043;-71
2023/08/29 01:33:29;;;;;;;4.68;3.22;;;;;;;20.33;51.59;94078.16;5130582;27;20031;-71
2023/08/29 01:35:54;;;;;;;6.28;3.25;;;;;;;20.25;51.54;94076.53;5113248;27;20088;-71
2023/08/29 01:38:20;;;;;;;5.72;3.35;;;;;;;19.93;51.98;94043.91;5096363;27;20042;-71
2023/08/29 01:40:45;;;;;;;4.43;3.20;;;;;;;20.08;52.23;94086.69;5128854;27;20031;-71
2023/08/29 01:43:10;;;;;;;5.53;2.90;;;;;;;20.06;51.82;94057.91;5128780;28;20067;-71
2023/08/29 01:45:36;;;;;;;4.70;3.22;;;;;;;20.06;52.24;94067.66;5113391;28;20035;-71
2023/08/29 01:48:01;;;;;;;4.78;3.10;;;;;;;20.07;52.36;94077.97;5130555;28;20027;-71
2023/08/29 01:50:28;;;;;;;4.90;3.20;;;;;;;20.02;52.12;94067.22;5102360;28;20031;-71
2023/08/29 01:52:53;;;;;;;4.28;3.10;;;;;;;19.93;51.86;94025.47;5091379;28;20587;-71
2023/08/29 01:55:18;;;;;;;5.35;3.40;;;;;;;20.20;52.16;94074.53;5107616;28;20041;-71
2023/08/29 01:57:44;;;;;;;5.28;3.22;;;;;;;20.15;51.83;94066.41;5092803;28;20031;-71
2023/08/29 02:00:10;;;;;;;4.78;3.20;;;;;;;19.96;52.03;94032.97;5076170;28;20028;-71
2023/08/29 02:02:35;;;;;;;4.40;3.40;;;;;;;20.17;52.30;94069.66;5092745;28;20518;-71
2023/08/29 02:05:01;;;;;;;3.90;3.05;;;;;;;20.16;52.29;94061.94;5093017;28;20085;-71
2023/08/29 02:07:26;;;;;;;4.93;3.40;;;;;;;20.05;51.90;94029.91;5096988;28;20031;-71
2023/08/29 02:09:52;;;;;;;4.78;3.10;;;;;;;19.94;51.94;94017.34;5109972;28;20477;-71
2023/08/29 02:12:17;;;;;;;5.05;2.72;;;;;;;20.06;52.14;94028.91;5109748;28;20509;-72
2023/08/29 02:14:42;;;;;;;4.03;2.97;;;;;;;19.92;52.32;94008.84;5109835;28;20070;-71
2023/08/29 02:17:08;;;;;;;6.90;3.00;;;;;;;20.25;51.49;94045.72;5109846;28;20420;-71
2023/08/29 02:19:33;;;;;;;4.20;3.00;;;;;;;19.89;51.92;94017.13;5113090;28;20042;-71
2023/08/29 02:21:59;;;;;;;4.43;3.10;;;;;;;19.87;52.13;94019.19;5126568;28;20496;-71
2023/08/29 02:24:24;;;;;;;7.25;3.33;;;;;;;20.18;52.16;94065.19;5092807;28;20408;-71
2023/08/29 02:26:49;;;;;;;3.70;3.20;;;;;;;20.20;52.14;94068.47;5109627;28;20040;-71
2023/08/29 02:29:15;;;;;;;6.07;3.33;;;;;;;19.55;52.02;93968.06;5094494;28;20039;-71
2023/08/29 02:31:40;;;;;;;4.03;3.05;;;;;;;20.16;51.72;94060.13;5113109;27;20042;-71
2023/08/29 02:34:06;;;;;;;4.13;3.38;;;;;;;20.15;51.92;94057.72;5096477;28;20522;-71
2023/08/29 02:36:31;;;;;;;4.55;3.28;;;;;;;20.01;52.62;94054.25;5096431;28;20034;-71
2023/08/29 02:38:57;;;;;;;5.05;3.53;;;;;;;19.39;52.39;93950.88;5113907;27;20027;-71
2023/08/29 02:41:22;;;;;;;4.82;3.55;;;;;;;20.00;52.96;94057.91;5135144;27;20442;-71
2023/08/29 02:43:47;;;;;;;4.32;3.30;;;;;;;19.95;53.05;94050.63;5116655;27;20031;-71
2023/08/29 02:46:13;;;;;;;4.85;3.13;;;;;;;20.01;52.96;94049.00;5110573;28;20035;-71
2023/08/29 02:48:38;;;;;;;6.28;3.35;;;;;;;20.11;52.45;94059.13;5113148;28;20054;-71
2023/08/29 02:51:04;;;;;;;4.60;3.15;;;;;;;19.89;53.21;94019.78;5113149;28;20032;-71
2023/08/29 02:53:29;;;;;;;4.68;3.20;;;;;;;19.84;53.16;94043.31;5128859;27;20109;-71
2023/08/29 02:55:56;;;;;;;5.25;3.13;;;;;;;19.83;53.58;94052.22;5133642;27;20023;-71
2023/08/29 02:58:21;;;;;;;5.70;3.28;;;;;;;19.71;54.01;94054.66;5116411;27;20019;-71
2023/08/29 03:00:47;;;;;;;4.05;3.20;;;;;;;19.58;54.22;94041.41;5129504;27;20039;-71
2023/08/29 03:03:13;;;;;;;6.10;3.30;;;;;;;19.76;53.79;94046.94;5095352;28;20015;-71
2023/08/29 03:05:40;;;;;;;3.45;3.03;;;;;;;19.77;53.78;94034.59;5112852;28;20027;-71
2023/08/29 03:08:05;;;;;;;5.68;3.53;;;;;;;19.28;54.11;94004.09;5096004;28;20083;-71
2023/08/29 03:10:31;;;;;;;6.32;3.00;;;;;;;19.63;54.43;94042.44;5114376;28;20083;-71
2023/08/29 03:12:56;;;;;;;3.45;2.80;;;;;;;19.68;54.22;94043.72;5112739;28;20027;-71
2023/08/29 03:15:22;;;;;;;4.80;3.00;;;;;;;19.50;54.76;94047.72;5097756;27;20034;-71
2023/08/29 03:17:48;;;;;;;4.47;3.05;;;;;;;19.59;54.92;94050.97;5114235;27;20031;-71
2023/08/29 03:20:14;;;;;;;4.72;3.20;;;;;;;19.41;54.79;94036.53;5116267;27;20027;-72
2023/08/29 03:22:40;;;;;;;5.45;3.00;;;;;;;19.34;55.34;94040.19;5122866;27;20036;-72
2023/08/29 03:25:06;;;;;;;4.78;3.20;;;;;;;18.74;55.63;93961.06;5095654;28;20534;-72
2023/08/29 03:27:31;;;;;;;5.47;3.25;;;;;;;19.29;55.56;94024.97;5114745;27;20036;-72
2023/08/29 03:29:57;;;;;;;7.50;3.40;;;;;;;19.14;55.31;93995.38;5078627;28;20413;-72
2023/08/29 03:32:23;;;;;;;5.40;3.55;;;;;;;18.75;55.30;93931.13;5078245;27;20032;-72
2023/08/29 03:34:55;;;;;;;4.13;3.10;;;;;;;19.16;55.86;94031.00;5096538;28;20072;-72
2023/08/29 03:37:20;;;;;;;6.22;3.20;;;;;;;19.15;55.84;94032.03;5118839;27;20031;-72
2023/08/29 03:39:46;;;;;;;4.70;3.10;;;;;;;19.12;56.13;94040.31;5131981;27;20098;-72
2023/08/29 03:42:11;;;;;;;4.82;3.30;;;;;;;19.20;56.30;94041.97;5127707;27;20031;-72
2023/08/29 03:44:36;;;;;;;4.10;3.35;;;;;;;19.08;56.84;94040.91;5112385;28;20482;-72
2023/08/29 03:47:03;;;;;;;4.78;3.25;;;;;;;19.15;56.33;94044.38;5094918;27;20508;-72
2023/08/29 03:49:28;;;;;;;4.90;2.97;;;;;;;18.86;56.42;94019.16;5094675;28;20027;-72
2023/08/29 03:51:55;;;;;;;4.75;3.38;;;;;;;19.11;56.57;94043.97;5094779;28;20039;-72
2023/08/29 03:54:21;;;;;;;4.20;3.10;;;;;;;19.04;56.64;94037.06;5096847;27;20558;-72
2023/08/29 03:56:47;;;;;;;4.88;2.88;;;;;;;19.12;56.04;94037.69;5131482;27;20122;-72
2023/08/29 03:59:13;;;;;;;4.47;3.45;;;;;;;19.25;55.88;94034.28;5111907;28;20024;-72
2023/08/29 04:01:38;;;;;;;4.28;3.15;;;;;;;19.24;55.84;94029.22;5111734;28;20034;-72
2023/08/29 04:04:04;;;;;;;5.00;2.97;;;;;;;19.32;55.60;94036.94;5111957;28;20023;-72
2023/08/29 04:06:34;;;;;;;4.85;3.20;;;;;;;19.43;55.50;94037.16;5094816;28;20462;-72
2023/08/29 04:08:59;;;;;;;4.85;2.85;;;;;;;19.47;55.44;94031.47;5121234;27;20028;-72
2023/08/29 04:11:25;;;;;;;4.93;3.28;;;;;;;19.48;55.82;94023.41;5121629;27;20063;-71
2023/08/29 04:13:51;;;;;;;4.50;3.25;;;;;;;19.35;55.12;93991.75;5125259;27;20027;-72
2023/08/29 04:16:17;;;;;;;6.55;3.95;;;;;;;19.61;54.91;94028.69;5119355;27;20038;-71
2023/08/29 04:18:42;;;;;;;4.00;2.83;;;;;;;19.57;55.32;94019.53;5123320;27;20076;-71
2023/08/29 04:21:08;;;;;;;7.00;3.15;;;;;;;19.61;55.59;94028.69;5098496;27;20076;-71
2023/08/29 04:23:33;;;;;;;6.57;3.40;;;;;;;19.70;55.09;94036.41;5104680;27;20027;-72
2023/08/29 04:25:59;;;;;;;4.70;3.28;;;;;;;19.66;55.21;94009.66;5120701;27;20106;-71
2023/08/29 04:28:25;;;;;;;6.47;3.13;;;;;;;19.76;55.11;94025.06;5095688;27;20089;-71
2023/08/29 04:30:50;;;;;;;8.70;3.35;;;;;;;19.80;55.12;94021.00;5104136;27;20497;-72
2023/08/29 04:33:16;;;;;;;4.45;3.33;;;;;;;19.76;55.57;94022.44;5110918;28;20020;-71
2023/08/29 04:35:42;;;;;;;3.97;3.00;;;;;;;19.86;55.28;94025.47;5136973;27;20423;-71
2023/08/29 04:38:07;;;;;;;4.47;3.20;;;;;;;19.85;55.45;94008.03;5151947;27;20022;-71
2023/08/29 04:40:32;;;;;;;7.00;3.58;;;;;;;19.92;55.58;94023.84;5127953;27;20028;-71
2023/08/29 04:42:58;;;;;;;12.93;3.53;;;;;;;19.99;55.32;94019.38;5111690;27;20492;-72
2023/08/29 04:45:23;;;;;;;16.48;3.95;;;;;;;20.13;55.60;94020.19;5117948;27;20034;-71
2023/08/29 04:47:49;;;;;;;5.38;3.33;;;;;;;20.76;53.26;94012.56;5130284;27;20042;-71
2023/08/29 04:50:14;;;;;;;5.07;3.38;;;;;;;21.66;51.49;94003.75;5125815;27;20541;-71
2023/08/29 04:52:39;;;;;;;5.95;3.42;;;;;;;22.51;47.96;93999.56;5122241;27;20036;-72
2023/08/29 04:55:05;;;;;;;4.10;2.85;;;;;;;23.41;45.98;94012.13;5119374;27;20019;-72
2023/08/29 04:57:32;;;;;;;4.38;3.15;;;;;;;23.98;43.80;94001.06;5128527;27;20111;-72
2023/08/29 04:59:57;;;;;;;5.47;3.10;;;;;;;24.95;41.87;94021.81;5093373;27;20424;-72
2023/08/29 05:02:23;;;;;;;6.43;2.92;;;;;;;25.31;39.90;93972.03;5129280;27;20043;-72
2023/08/29 05:04:48;;;;;;;5.32;3.05;;;;;;;26.32;38.76;94005.06;5112848;27;20022;-72
2023/08/29 05:07:14;;;;;;;5.15;3.30;;;;;;;26.22;37.93;93926.72;5113281;27;20038;-72
2023/08/29 05:09:39;;;;;;;4.10;3.00;;;;;;;26.88;37.29;93989.88;5128050;27;20173;-72
2023/08/29 05:12:07;;;;;;;5.63;2.85;;;;;;;27.11;36.66;93978.97;5130008;27;20027;-72
2023/08/29 05:14:32;;;;;;;5.20;3.00;;;;;;;27.37;36.26;93987.28;5126870;27;20035;-72
2023/08/29 05:16:57;;;;;;;5.10;2.75;;;;;;;27.48;35.46;93964.97;5129620;27;20045;-72
2023/08/29 05:19:23;;;;;;;4.28;2.53;;;;;;;26.79;36.58;93994.03;5110090;27;20038;-72
2023/08/29 05:21:48;;;;;;;5.45;2.85;;;;;;;26.57;36.63;93976.19;5129062;27;20438;-72
2023/08/29 05:24:14;;;;;;;9.43;3.10;;;;;;;26.42;36.86;93997.25;5127970;27;20045;-72
2023/08/29 05:26:39;;;;;;;4.68;2.95;;;;;;;26.00;37.99;93995.84;5128536;27;20031;-72
2023/08/29 05:29:04;;;;;;;4.28;2.83;;;;;;;25.84;37.85;93988.66;5125645;27;20454;-72
2023/08/29 05:31:31;;;;;;;3.78;2.60;;;;;;;25.98;37.91;93991.78;5127821;27;20047;-72
2023/08/29 05:33:56;;;;;;;4.90;2.75;;;;;;;25.47;38.11;93986.41;5125855;27;20489;-72
2023/08/29 05:36:22;;;;;;;6.85;2.75;;;;;;;25.17;38.26;93968.06;5118102;27;20060;-71
2023/08/29 05:38:47;;;;;;;6.10;2.83;;;;;;;25.44;38.57;93978.13;5090351;27;20034;-72
2023/08/29 05:41:13;;;;;;;5.80;3.10;;;;;;;25.31;38.90;93984.53;5125043;27;20046;-72
2023/08/29 05:43:39;;;;;;;6.63;2.95;;;;;;;25.23;39.64;93980.38;5108111;28;20016;-72
2023/08/29 05:46:04;;;;;;;3.83;2.88;;;;;;;25.24;38.92;93979.38;5117475;28;20031;-72
2023/08/29 05:48:29;;;;;;;4.10;2.90;;;;;;;25.12;39.49;93982.00;5123899;28;20043;-72
2023/08/29 05:50:55;;;;;;;4.00;2.70;;;;;;;25.05;39.43;93970.75;5128008;27;20046;-72
2023/08/29 05:53:20;;;;;;;7.03;2.72;;;;;;;25.23;38.96;93985.69;5126935;27;20023;-72
2023/08/29 05:55:46;;;;;;;4.18;2.67;;;;;;;24.94;39.27;93975.03;5128829;27;20042;-72
2023/08/29 05:58:11;;;;;;;4.15;2.85;;;;;;;24.99;39.40;93987.63;5093920;28;20462;-72
2023/08/29 06:00:37;;;;;;;5.50;3.10;;;;;;;24.61;39.76;93985.53;5126813;28;20405;-72
2023/08/29 06:03:04;;;;;;;9.60;3.10;;;;;;;24.45;40.74;93984.38;5128716;27;20118;-72
2023/08/29 06:05:31;;;;;;;5.38;3.25;;;;;;;24.24;40.61;93986.56;5135646;27;20029;-72
2023/08/29 06:07:57;;;;;;;6.40;3.33;;;;;;;24.40;40.39;93985.03;5102024;27;20034;-72
2023/08/29 06:10:23;;;;;;;4.85;3.00;;;;;;;24.38;40.91;93983.69;5109220;27;20035;-73
2023/08/29 06:12:48;;;;;;;7.15;4.40;;;;;;;24.51;40.73;93997.50;5094472;27;20046;-72
2023/08/29 06:15:14;;;;;;;4.75;2.95;;;;;;;24.79;40.33;94006.59;5115273;27;20024;-72
2023/08/29 06:17:40;;;;;;;4.32;3.00;;;;;;;24.87;40.09;93992.16;5115020;28;20248;-72
2023/08/29 06:20:06;;;;;;;5.38;2.90;;;;;;;24.98;38.92;93986.78;5128332;27;20023;-72
2023/08/29 06:22:31;;;;;;;5.47;3.35;;;;;;;25.16;39.06;93980.53;5099650;27;20027;-72
2023/08/29 06:24:57;;;;;;;5.65;3.08;;;;;;;25.17;39.38;93979.50;5134311;27;20031;-72
2023/08/29 06:27:22;;;;;;;5.25;3.08;;;;;;;25.41;38.91;93980.19;5135419;27;20034;-72
2023/08/29 06:29:48;;;;;;;5.50;2.70;;;;;;;25.58;38.19;93971.44;5116975;27;20497;-72
2023/08/29 06:32:14;;;;;;;3.75;2.80;;;;;;;25.39;39.42;93969.00;5132583;27;20424;-72
2023/08/29 06:34:39;;;;;;;5.50;3.00;;;;;;;25.50;39.19;93990.44;5133218;27;20400;-72
2023/08/29 06:37:05;;;;;;;6.88;3.10;;;;;;;25.62;38.58;93993.84;5133142;27;20031;-72
2023/08/29 06:39:31;;;;;;;7.35;2.70;;;;;;;25.53;39.36;93969.50;5132096;27;20453;-73
2023/08/29 06:41:56;;;;;;;4.63;2.90;;;;;;;25.65;38.84;93998.66;5135154;27;20031;-73
2023/08/29 06:44:22;;;;;;;7.72;3.10;;;;;;;25.79;38.24;93988.53;5135378;27;20027;-72
2023/08/29 06:46:48;;;;;;;5.57;2.97;;;;;;;26.19;38.03;93988.41;5133851;27;20042;-72
2023/08/29 06:49:13;;;;;;;5.85;3.15;;;;;;;26.17;37.19;93979.84;5116819;27;20112;-73
2023/08/29 06:51:38;;;;;;;4.93;3.00;;;;;;;25.98;38.38;93991.78;5116497;27;20069;-72
2023/08/29 06:54:04;;;;;;;5.70;3.45;;;;;;;26.02;37.65;93990.25;5135127;27;20015;-72
2023/08/29 06:56:30;;;;;;;6.30;3.42;;;;;;;25.59;39.42;93986.34;5116585;27;20043;-72
2023/08/29 06:58:55;;;;;;;4.85;3.17;;;;;;;25.67;39.36;93985.16;5116389;27;20030;-73
2023/08/29 07:01:20;;;;;;;5.05;3.30;;;;;;;25.64;39.23;93981.13;5133745;27;20031;-72
2023/08/29 07:03:46;;;;;;;4.50;3.20;;;;;;;25.42;39.44;93973.03;5116269;27;20042;-72
2023/08/29 07:06:11;;;;;;;6.82;3.20;;;;;;;25.57;38.98;93959.19;5134725;27;20488;-72
2023/08/29 07:08:37;;;;;;;4.53;3.20;;;;;;;25.67;38.91;93970.00;5116105;27;20035;-73
2023/08/29 07:11:03;;;;;;;4.13;3.15;;;;;;;25.80;39.13;93974.22;5133210;27;20053;-72
2023/08/29 07:13:29;;;;;;;4.10;3.15;;;;;;;26.17;37.93;93963.09;5116012;27;20560;-72
2023/08/29 07:15:54;;;;;;;5.68;3.00;;;;;;;26.34;38.04;93973.72;5133580;27;20042;-72
2023/08/29 07:18:20;;;;;;;6.82;3.10;;;;;;;26.56;36.79;93968.44;5133227;27;20019;-72
2023/08/29 07:20:47;;;;;;;4.55;2.95;;;;;;;26.87;36.40;93972.28;5116034;27;20420;-73
2023/08/29 07:23:13;;;;;;;4.00;2.90;;;;;;;26.89;36.92;93970.19;5115769;27;20019;-73
2023/08/29 07:25:39;;;;;;;5.15;3.30;;;;;;;26.90;36.50;93961.94;5133158;27;20058;-73
2023/08/29 07:28:09;;;;;;;7.20;3.28;;;;;;;27.09;36.08;93969.63;5099081;27;20043;-72
2023/08/29 07:30:35;;;;;;;5.80;3.43;;;;;;;26.90;36.52;93945.16;5116102;27;20042;-72
2023/08/29 07:33:00;;;;;;;5.85;3.58;;;;;;;26.87;36.89;93953.66;5115790;27;20035;-73
2023/08/29 07:35:25;;;;;;;5.88;3.70;;;;;;;27.16;36.09;93960.41;5098967;27;20030;-73
2023/08/29 07:37:52;;;;;;;10.15;3.42;;;;;;;27.18;36.33;93952.94;5132853;27;20031;-73
2023/08/29 07:40:17;;;;;;;6.40;3.22;;;;;;;27.55;35.45;93964.75;5133092;27;20039;-72
2023/08/29 07:42:43;;;;;;;6.45;3.50;;;;;;;27.53;34.92;93965.03;5115529;27;20023;-73
2023/08/29 07:45:09;;;;;;;5.55;3.67;;;;;;;27.43;34.81;93964.13;5132971;27;20031;-72
2023/08/29 07:47:34;;;;;;;4.32;3.40;;;;;;;27.21;35.08;93953.50;5115565;27;20031;-72
2023/08/29 07:50:00;;;;;;;4.88;3.50;;;;;;;27.49;35.34;93973.78;5132703;27;20042;-72
2023/08/29 07:52:26;;;;;;;6.28;3.92;;;;;;;27.47;34.62;93966.06;5115358;27;20027;-72
2023/08/29 07:54:51;;;;;;;6.25;3.60;;;;;;;27.75;35.15;93958.81;5115634;27;20026;-72
2023/08/29 07:57:16;;;;;;;4.38;3.63;;;;;;;27.52;34.86;93955.41;5132460;27;20024;-73
2023/08/29 07:59:42;;;;;;;6.95;3.80;;;;;;;27.82;34.60;93960.25;5134035;27;20481;-73
2023/08/29 08:02:07;;;;;;;5.30;3.55;;;;;;;27.79;34.80;93974.09;5115318;27;20508;-72
2023/08/29 08:04:33;;;;;;;9.85;3.85;;;;;;;27.98;34.82;93952.38;5132276;27;20031;-73
2023/08/29 08:06:58;;;;;;;6.80;3.75;;;;;;;28.32;34.11;93960.06;5132194;27;20500;-72
2023/08/29 08:09:24;;;;;;;6.13;3.38;;;;;;;28.36;34.65;93959.28;5133719;27;20031;-72
2023/08/29 08:11:49;;;;;;;7.50;3.92;;;;;;;28.46;34.32;93958.56;5133318;27;20038;-72
2023/08/29 08:14:17;;;;;;;6.65;3.03;;;;;;;27.96;34.20;93933.13;5132170;27;20027;-73
2023/08/29 08:16:42;;;;;;;4.55;3.50;;;;;;;28.17;34.96;93964.25;5132015;27;20030;-72
2023/08/29 08:19:09;;;;;;;4.60;3.58;;;;;;;28.14;33.82;93953.25;5133490;27;20400;-72
2023/08/29 08:21:35;;;;;;;6.90;4.25;;;;;;;28.20;34.36;93938.91;5131971;27;20031;-73
2023/08/29 08:24:00;;;;;;;7.10;3.75;;;;;;;28.26;34.06;93936.00;5132063;27;20038;-72
2023/08/29 08:26:27;;;;;;;4.55;3.72;;;;;;;28.36;33.70;93948.63;5132880;27;20035;-73
2023/08/29 08:28:53;;;;;;;6.35;3.78;;;;;;;28.08;33.65;93925.72;5133081;27;20119;-73
2023/08/29 08:31:19;;;;;;;5.57;4.07;;;;;;;28.25;33.92;93933.56;5114769;27;20489;-73
2023/08/29 08:33:45;;;;;;;6.68;3.85;;;;;;;28.18;33.61;93917.00;5114618;27;20031;-73
2023/08/29 08:36:10;;;;;;;5.05;3.80;;;;;;;28.48;33.76;93927.88;5132999;27;20031;-72
2023/08/29 08:38:36;;;;;;;9.68;3.70;;;;;;;28.43;34.00;93930.50;5097479;27;20035;-72
2023/08/29 08:41:01;;;;;;;6.80;4.00;;;;;;;28.30;34.78;93920.25;5132949;27;20053;-72
2023/08/29 08:43:27;;;;;;;5.68;4.00;;;;;;;28.35;34.17;93927.50;5131511;27;20088;-72
2023/08/29 08:45:53;;;;;;;7.15;3.97;;;;;;;28.47;33.64;93915.59;5131578;27;20027;-73
2023/08/29 08:48:19;;;;;;;6.03;3.90;;;;;;;28.81;33.60;93923.22;5097243;27;20461;-72
2023/08/29 08:50:45;;;;;;;5.93;4.05;;;;;;;28.76;33.63;93920.50;5131356;27;20046;-73
2023/08/29 08:53:10;;;;;;;7.97;3.72;;;;;;;28.71;33.30;93917.81;5114175;27;20031;-72
2023/08/29 08:55:35;;;;;;;5.72;3.60;;;;;;;29.15;33.38;93909.44;5114252;27;20413;-72
2023/08/29 08:58:01;;;;;;;7.20;4.28;;;;;;;29.23;32.95;93918.81;5114202;27;20589;-72
2023/08/29 09:00:27;;;;;;;5.30;3.50;;;;;;;29.65;32.16;93918.63;5114324;27;20030;-72
2023/08/29 09:02:52;;;;;;;5.10;3.90;;;;;;;29.57;33.35;93911.91;5131231;27;20031;-72
2023/08/29 09:05:19;;;;;;;5.40;3.78;;;;;;;29.55;32.20;93897.19;5131492;27;20027;-73
2023/08/29 09:07:44;;;;;;;5.07;3.88;;;;;;;29.67;31.77;93913.00;5131085;27;20561;-72
2023/08/29 09:10:10;;;;;;;5.53;3.70;;;;;;;29.98;32.02;93913.81;5113943;27;20034;-73
2023/08/29 09:12:46;;;;;;;5.43;4.10;;;;;;;29.86;31.66;93918.59;5131711;27;20031;-72
2023/08/29 09:15:11;;;;;;;5.32;3.88;;;;;;;29.83;32.55;93918.06;5113440;27;20520;-72
2023/08/29 09:17:36;;;;;;;9.88;4.25;;;;;;;29.85;32.59;93917.81;5132059;27;20031;-73
2023/08/29 09:20:06;;;;;;;5.45;4.03;;;;;;;29.77;32.28;93903.09;5132591;27;20023;-72
2023/08/29 09:22:32;;;;;;;7.70;4.03;;;;;;;29.67;32.36;93921.84;5130732;27;20028;-72
2023/08/29 09:25:02;;;;;;;6.80;4.00;;;;;;;29.48;32.26;93904.69;5129558;27;20638;-73
2023/08/29 09:27:27;;;;;;;6.22;4.18;;;;;;;29.86;31.58;93903.34;5130297;27;20027;-73
2023/08/29 09:29:53;;;;;;;6.47;4.00;;;;;;;29.80;32.11;93897.19;5113771;27;20054;-72
2023/08/29 09:32:18;;;;;;;7.47;3.92;;;;;;;29.62;32.82;93900.41;5130705;27;20421;-73
2023/08/29 09:34:44;;;;;;;10.50;4.07;;;;;;;29.61;32.34;93901.44;5132258;27;20385;-71
2023/08/29 09:37:10;;;;;;;6.05;3.90;;;;;;;29.58;34.35;93904.66;5130624;27;20394;-70
2023/08/29 09:39:37;;;;;;;6.43;4.00;;;;;;;29.44;33.78;93900.91;5112889;27;20453;-72
2023/08/29 09:42:06;;;;;;;5.50;4.10;;;;;;;29.02;33.98;93893.88;5096492;27;20034;-72
2023/08/29 09:44:37;;;;;;;4.22;3.78;;;;;;;29.38;33.86;93908.94;5113514;28;20408;-72
2023/08/29 09:47:04;;;;;;;6.57;4.20;;;;;;;29.12;34.79;93901.94;5096630;28;20527;-72
2023/08/29 09:49:50;;;;;;;4.88;4.10;;;;;;;28.87;34.71;93897.31;5113736;28;20048;-72
2023/08/29 09:52:16;;;;;;;6.28;3.90;;;;;;;28.96;35.54;93907.22;5115658;28;20128;-72
2023/08/29 09:54:51;;;;;;;8.75;4.72;;;;;;;28.64;37.64;93894.03;5130556;27;20039;-72
2023/08/29 09:57:22;;;;;;;7.97;5.22;;;;;;;28.57;36.98;93908.69;5113787;28;20027;-73
2023/08/29 09:59:50;;;;;;;5.47;4.25;;;;;;;28.72;35.49;93916.75;5114094;28;20039;-73
2023/08/29 10:02:18;;;;;;;7.43;4.25;;;;;;;28.38;37.86;93909.09;5096542;28;20063;-73
2023/08/29 10:04:46;;;;;;;6.40;3.90;;;;;;;28.33;36.31;93906.38;5113875;28;20030;-73
2023/08/29 10:07:25;;;;;;;5.50;3.95;;;;;;;28.21;35.86;93892.44;5113358;28;20050;-73
2023/08/29 10:09:51;;;;;;;4.95;3.60;;;;;;;28.12;38.80;93907.34;5114009;28;20027;-73
2023/08/29 10:12:16;;;;;;;5.57;3.97;;;;;;;27.84;37.38;93890.63;5113103;28;20536;-73
2023/08/29 10:14:42;;;;;;;5.38;3.90;;;;;;;28.13;37.41;93898.28;5113108;28;20022;-73
2023/08/29 10:17:07;;;;;;;4.90;3.78;;;;;;;28.03;37.21;93899.03;5096131;28;20042;-73
2023/08/29 10:19:33;;;;;;;5.68;3.83;;;;;;;27.99;37.94;93877.38;5113276;28;20019;-73
2023/08/29 10:21:59;;;;;;;9.50;3.90;;;;;;;28.11;37.63;93890.53;5130255;28;20092;-73
2023/08/29 10:24:25;;;;;;;5.93;4.15;;;;;;;28.05;38.03;93887.03;5096227;28;20105;-73
2023/08/29 10:26:50;;;;;;;6.07;4.35;;;;;;;27.85;39.57;93885.00;5096039;28;20039;-73
2023/08/29 10:29:16;;;;;;;5.32;3.95;;;;;;;27.72;41.76;93871.28;5096017;28;20047;-73
2023/08/29 10:31:43;;;;;;;10.90;4.72;;;;;;;27.99;38.38;93888.03;5112977;28;20027;-73
2023/08/29 10:34:08;;;;;;;5.25;4.00;;;;;;;27.83;36.24;93897.00;5096134;28;20099;-72
2023/08/29 10:36:35;;;;;;;6.13;4.22;;;;;;;27.88;37.16;93890.91;5096047;28;20446;-73
2023/08/29 10:39:01;;;;;;;4.80;3.85;;;;;;;27.87;37.40;93887.44;5113367;28;20035;-72
2023/08/29 10:41:26;;;;;;;6.47;4.20;;;;;;;27.66;37.17;93877.66;5130097;28;20105;-73
2023/08/29 10:44:30;;;;;;;7.22;4.53;;;;;;;27.69;36.73;93874.47;5112893;28;20050;-72
2023/08/29 10:47:20;;;;;;;6.20;4.10;;;;;;;27.49;36.69;93872.44;5131251;27;20035;-72
2023/08/29 10:49:47;;;;;;;6.00;3.88;;;;;;;27.70;39.34;93894.75;5132515;27;20095;-72
2023/08/29 10:52:13;;;;;;;5.72;4.05;;;;;;;27.62;37.60;93899.50;5134939;27;20111;-72
2023/08/29 10:54:40;;;;;;;6.03;3.90;;;;;;;27.59;37.04;93889.34;5133877;27;20031;-73
2023/08/29 10:57:30;;;;;;;6.93;4.05;;;;;;;27.62;37.07;93901.38;5099631;27;20080;-73
2023/08/29 10:59:56;;;;;;;8.80;4.05;;;;;;;27.52;37.25;93895.94;5135219;27;20066;-72
2023/08/29 11:02:26;;;;;;;4.47;3.88;;;;;;;27.41;38.03;93884.38;5134794;27;20493;-72
2023/08/29 11:04:53;;;;;;;5.30;3.83;;;;;;;27.44;38.19;93881.19;5099790;27;20031;-73
2023/08/29 11:07:28;;;;;;;5.63;3.83;;;;;;;27.46;38.72;93876.44;5133387;27;20027;-72
2023/08/29 11:10:22;;;;;;;6.55;4.30;;;;;;;27.55;37.46;93864.25;5133676;27;20098;-73
2023/08/29 11:13:06;;;;;;;5.50;4.03;;;;;;;27.54;38.75;93878.63;5133304;27;20144;-72
2023/08/29 11:15:54;;;;;;;4.65;3.65;;;;;;;27.62;37.67;93872.81;5116782;27;20038;-72
2023/08/29 11:18:32;;;;;;;5.90;4.20;;;;;;;27.47;37.66;93864.72;5128621;27;20039;-73
2023/08/29 11:21:06;;;;;;;5.75;3.97;;;;;;;27.50;37.41;93869.53;5099977;27;20638;-73
2023/08/29 11:23:37;;;;;;;6.47;3.88;;;;;;;27.47;37.20;93855.91;5116404;27;20568;-72
2023/08/29 11:26:03;;;;;;;5.93;3.97;;;;;;;27.42;37.75;93845.22;5116095;27;20031;-72
2023/08/29 11:28:30;;;;;;;8.80;4.00;;;;;;;27.34;37.09;93854.47;5132857;27;20092;-72
2023/08/29 11:30:56;;;;;;;5.20;4.05;;;;;;;27.05;37.21;93848.56;5133028;27;20103;-72
2023/08/29 11:33:29;;;;;;;5.93;4.18;;;;;;;27.31;37.52;93852.31;5132935;27;20027;-72